sensor_id;sensor_type;location;lat;lon;timestamp;P1;durP1;ratioP1;P2;durP2;ratioP2
45618;SDS011;31343;47.520;19.144;2023-06-10T00:02:05;3.55;;;2.10;;
45618;SDS011;31343;47.520;19.144;2023-06-10T00:04:32;3.03;;;2.15;;
45618;SDS011;31343;47.520;19.144;2023-06-10T00:06:57;3.33;;;1.95;;
45618;SDS011;31343;47.520;19.144;2023-06-10T00:09:23;4.18;;;2.33;;
45618;SDS011;31343;47.520;19.144;2023-06-10T00:11:49;2.72;;;1.88;;
45618;SDS011;31343;47.520;19.144;2023-06-10T00:14:15;2.53;;;1.90;;
45618;SDS011;31343;47.520;19.144;2023-06-10T00:16:40;2.78;;;2.13;;
45618;SDS011;31343;47.520;19.144;2023-06-10T00:19:10;2.58;;;1.60;;
45618;SDS011;31343;47.520;19.144;2023-06-10T00:21:40;2.10;;;1.50;;
45618;SDS011;31343;47.520;19.144;2023-06-10T00:24:06;2.20;;;1.50;;
45618;SDS011;31343;47.520;19.144;2023-06-10T00:26:37;2.85;;;1.70;;
45618;SDS011;31343;47.520;19.144;2023-06-10T00:29:03;3.00;;;1.75;;
45618;SDS011;31343;47.520;19.144;2023-06-10T00:31:30;4.20;;;1.88;;
45618;SDS011;31343;47.520;19.144;2023-06-10T00:33:56;3.95;;;2.15;;
45618;SDS011;31343;47.520;19.144;2023-06-10T00:36:21;2.17;;;1.27;;
45618;SDS011;31343;47.520;19.144;2023-06-10T00:38:48;2.25;;;1.75;;
45618;SDS011;31343;47.520;19.144;2023-06-10T00:41:14;3.17;;;1.80;;
45618;SDS011;31343;47.520;19.144;2023-06-10T00:43:39;2.95;;;1.70;;
45618;SDS011;31343;47.520;19.144;2023-06-10T00:46:05;2.83;;;1.90;;
45618;SDS011;31343;47.520;19.144;2023-06-10T00:48:31;3.35;;;2.47;;
45618;SDS011;31343;47.520;19.144;2023-06-10T00:50:57;3.03;;;2.25;;
45618;SDS011;31343;47.520;19.144;2023-06-10T00:53:24;2.53;;;1.85;;
45618;SDS011;31343;47.520;19.144;2023-06-10T00:55:50;3.83;;;1.83;;
45618;SDS011;31343;47.520;19.144;2023-06-10T00:58:17;3.03;;;1.80;;
45618;SDS011;31343;47.520;19.144;2023-06-10T01:00:44;3.60;;;2.78;;
45618;SDS011;31343;47.520;19.144;2023-06-10T01:03:10;2.92;;;1.75;;
45618;SDS011;31343;47.520;19.144;2023-06-10T01:05:37;3.13;;;1.85;;
45618;SDS011;31343;47.520;19.144;2023-06-10T01:08:13;2.08;;;1.52;;
45618;SDS011;31343;47.520;19.144;2023-06-10T01:10:57;3.38;;;1.92;;
45618;SDS011;31343;47.520;19.144;2023-06-10T01:13:27;2.30;;;1.23;;
45618;SDS011;31343;47.520;19.144;2023-06-10T01:15:54;2.13;;;1.60;;
45618;SDS011;31343;47.520;19.144;2023-06-10T01:18:21;3.05;;;1.92;;
45618;SDS011;31343;47.520;19.144;2023-06-10T01:20:47;3.28;;;2.00;;
45618;SDS011;31343;47.520;19.144;2023-06-10T01:23:13;3.70;;;1.27;;
45618;SDS011;31343;47.520;19.144;2023-06-10T01:25:41;3.58;;;2.13;;
45618;SDS011;31343;47.520;19.144;2023-06-10T01:28:14;3.08;;;1.77;;
45618;SDS011;31343;47.520;19.144;2023-06-10T01:31:06;2.38;;;1.40;;
45618;SDS011;31343;47.520;19.144;2023-06-10T01:33:36;5.75;;;2.10;;
45618;SDS011;31343;47.520;19.144;2023-06-10T01:36:06;3.50;;;2.05;;
45618;SDS011;31343;47.520;19.144;2023-06-10T01:38:33;2.58;;;1.83;;
45618;SDS011;31343;47.520;19.144;2023-06-10T01:41:05;3.53;;;2.05;;
45618;SDS011;31343;47.520;19.144;2023-06-10T01:43:33;2.72;;;2.00;;
45618;SDS011;31343;47.520;19.144;2023-06-10T01:45:59;3.75;;;1.88;;
45618;SDS011;31343;47.520;19.144;2023-06-10T01:48:26;2.55;;;1.77;;
45618;SDS011;31343;47.520;19.144;2023-06-10T01:50:52;2.28;;;1.73;;
45618;SDS011;31343;47.520;19.144;2023-06-10T01:53:18;2.72;;;1.63;;
45618;SDS011;31343;47.520;19.144;2023-06-10T01:55:45;2.53;;;1.60;;
45618;SDS011;31343;47.520;19.144;2023-06-10T01:58:11;2.53;;;1.48;;
45618;SDS011;31343;47.520;19.144;2023-06-10T02:00:36;2.78;;;1.75;;
45618;SDS011;31343;47.520;19.144;2023-06-10T02:03:02;3.25;;;2.05;;
45618;SDS011;31343;47.520;19.144;2023-06-10T02:05:28;2.95;;;2.10;;
45618;SDS011;31343;47.520;19.144;2023-06-10T02:07:54;2.33;;;1.42;;
45618;SDS011;31343;47.520;19.144;2023-06-10T02:10:19;2.25;;;1.35;;
45618;SDS011;31343;47.520;19.144;2023-06-10T02:12:45;2.80;;;1.80;;
45618;SDS011;31343;47.520;19.144;2023-06-10T02:15:11;6.13;;;2.17;;
45618;SDS011;31343;47.520;19.144;2023-06-10T02:17:37;2.80;;;1.50;;
45618;SDS011;31343;47.520;19.144;2023-06-10T02:20:03;2.40;;;1.52;;
45618;SDS011;31343;47.520;19.144;2023-06-10T02:22:33;1.92;;;1.40;;
45618;SDS011;31343;47.520;19.144;2023-06-10T02:24:59;3.03;;;1.73;;
45618;SDS011;31343;47.520;19.144;2023-06-10T02:27:25;2.88;;;1.92;;
45618;SDS011;31343;47.520;19.144;2023-06-10T02:29:51;2.38;;;1.70;;
45618;SDS011;31343;47.520;19.144;2023-06-10T02:32:17;3.58;;;2.20;;
45618;SDS011;31343;47.520;19.144;2023-06-10T02:34:42;2.78;;;1.60;;
45618;SDS011;31343;47.520;19.144;2023-06-10T02:37:08;3.20;;;1.60;;
45618;SDS011;31343;47.520;19.144;2023-06-10T02:39:34;2.25;;;1.63;;
45618;SDS011;31343;47.520;19.144;2023-06-10T02:42:00;2.33;;;1.33;;
45618;SDS011;31343;47.520;19.144;2023-06-10T02:44:26;3.42;;;2.33;;
45618;SDS011;31343;47.520;19.144;2023-06-10T02:46:53;1.98;;;1.70;;
45618;SDS011;31343;47.520;19.144;2023-06-10T02:49:18;2.20;;;1.45;;
45618;SDS011;31343;47.520;19.144;2023-06-10T02:51:44;2.72;;;1.48;;
45618;SDS011;31343;47.520;19.144;2023-06-10T02:54:10;3.10;;;1.55;;
45618;SDS011;31343;47.520;19.144;2023-06-10T02:56:35;2.42;;;1.35;;
45618;SDS011;31343;47.520;19.144;2023-06-10T02:59:06;2.67;;;1.90;;
45618;SDS011;31343;47.520;19.144;2023-06-10T03:01:33;2.30;;;1.55;;
45618;SDS011;31343;47.520;19.144;2023-06-10T03:04:01;2.80;;;1.75;;
45618;SDS011;31343;47.520;19.144;2023-06-10T03:06:29;2.67;;;2.22;;
45618;SDS011;31343;47.520;19.144;2023-06-10T03:08:55;2.63;;;1.73;;
45618;SDS011;31343;47.520;19.144;2023-06-10T03:11:20;2.75;;;1.90;;
45618;SDS011;31343;47.520;19.144;2023-06-10T03:13:46;2.13;;;1.80;;
45618;SDS011;31343;47.520;19.144;2023-06-10T03:16:13;3.08;;;2.20;;
45618;SDS011;31343;47.520;19.144;2023-06-10T03:18:39;3.05;;;1.77;;
45618;SDS011;31343;47.520;19.144;2023-06-10T03:21:04;2.70;;;2.22;;
45618;SDS011;31343;47.520;19.144;2023-06-10T03:23:30;2.72;;;1.80;;
45618;SDS011;31343;47.520;19.144;2023-06-10T03:25:56;2.88;;;1.58;;
45618;SDS011;31343;47.520;19.144;2023-06-10T03:28:22;2.83;;;1.83;;
45618;SDS011;31343;47.520;19.144;2023-06-10T03:30:47;3.25;;;2.33;;
45618;SDS011;31343;47.520;19.144;2023-06-10T03:33:13;1.95;;;1.42;;
45618;SDS011;31343;47.520;19.144;2023-06-10T03:35:39;3.58;;;2.10;;
45618;SDS011;31343;47.520;19.144;2023-06-10T03:38:05;2.67;;;2.25;;
45618;SDS011;31343;47.520;19.144;2023-06-10T03:40:31;2.67;;;1.63;;
45618;SDS011;31343;47.520;19.144;2023-06-10T03:43:00;2.53;;;1.58;;
45618;SDS011;31343;47.520;19.144;2023-06-10T03:45:27;3.38;;;2.28;;
45618;SDS011;31343;47.520;19.144;2023-06-10T03:47:53;2.40;;;1.60;;
45618;SDS011;31343;47.520;19.144;2023-06-10T03:50:20;2.38;;;1.30;;
45618;SDS011;31343;47.520;19.144;2023-06-10T03:52:48;2.83;;;1.90;;
45618;SDS011;31343;47.520;19.144;2023-06-10T03:55:14;3.17;;;1.55;;
45618;SDS011;31343;47.520;19.144;2023-06-10T03:57:43;3.25;;;1.98;;
45618;SDS011;31343;47.520;19.144;2023-06-10T04:00:09;2.13;;;1.38;;
45618;SDS011;31343;47.520;19.144;2023-06-10T04:02:38;2.38;;;1.92;;
45618;SDS011;31343;47.520;19.144;2023-06-10T04:05:14;3.25;;;1.85;;
45618;SDS011;31343;47.520;19.144;2023-06-10T04:07:41;2.55;;;1.55;;
45618;SDS011;31343;47.520;19.144;2023-06-10T04:10:08;2.00;;;1.63;;
45618;SDS011;31343;47.520;19.144;2023-06-10T04:12:35;2.22;;;1.35;;
45618;SDS011;31343;47.520;19.144;2023-06-10T04:15:03;2.42;;;1.60;;
45618;SDS011;31343;47.520;19.144;2023-06-10T04:17:29;2.00;;;1.27;;
45618;SDS011;31343;47.520;19.144;2023-06-10T04:19:55;4.78;;;1.92;;
45618;SDS011;31343;47.520;19.144;2023-06-10T04:22:21;2.30;;;1.55;;
45618;SDS011;31343;47.520;19.144;2023-06-10T04:24:48;2.30;;;1.30;;
45618;SDS011;31343;47.520;19.144;2023-06-10T04:27:13;2.97;;;1.83;;
45618;SDS011;31343;47.520;19.144;2023-06-10T04:29:39;1.58;;;1.23;;
45618;SDS011;31343;47.520;19.144;2023-06-10T04:32:05;1.58;;;1.35;;
45618;SDS011;31343;47.520;19.144;2023-06-10T04:34:35;3.22;;;1.75;;
45618;SDS011;31343;47.520;19.144;2023-06-10T04:37:04;3.45;;;1.65;;
45618;SDS011;31343;47.520;19.144;2023-06-10T04:39:31;2.30;;;1.50;;
45618;SDS011;31343;47.520;19.144;2023-06-10T04:41:57;3.05;;;1.88;;
45618;SDS011;31343;47.520;19.144;2023-06-10T04:44:24;1.50;;;1.00;;
45618;SDS011;31343;47.520;19.144;2023-06-10T04:46:49;2.13;;;1.42;;
45618;SDS011;31343;47.520;19.144;2023-06-10T04:49:17;1.90;;;1.60;;
45618;SDS011;31343;47.520;19.144;2023-06-10T04:51:42;2.05;;;1.50;;
45618;SDS011;31343;47.520;19.144;2023-06-10T04:54:08;1.88;;;1.25;;
45618;SDS011;31343;47.520;19.144;2023-06-10T04:56:34;2.03;;;1.10;;
45618;SDS011;31343;47.520;19.144;2023-06-10T04:59:00;2.30;;;1.55;;
45618;SDS011;31343;47.520;19.144;2023-06-10T05:01:26;2.72;;;1.63;;
45618;SDS011;31343;47.520;19.144;2023-06-10T05:03:52;2.35;;;1.67;;
45618;SDS011;31343;47.520;19.144;2023-06-10T05:06:19;3.15;;;1.70;;
45618;SDS011;31343;47.520;19.144;2023-06-10T05:08:45;2.17;;;1.60;;
45618;SDS011;31343;47.520;19.144;2023-06-10T05:11:11;3.35;;;1.75;;
45618;SDS011;31343;47.520;19.144;2023-06-10T05:13:36;1.67;;;1.10;;
45618;SDS011;31343;47.520;19.144;2023-06-10T05:16:03;1.70;;;1.13;;
45618;SDS011;31343;47.520;19.144;2023-06-10T05:18:29;2.00;;;1.65;;
45618;SDS011;31343;47.520;19.144;2023-06-10T05:20:55;1.95;;;1.27;;
45618;SDS011;31343;47.520;19.144;2023-06-10T05:23:21;1.20;;;1.08;;
45618;SDS011;31343;47.520;19.144;2023-06-10T05:25:47;1.77;;;1.00;;
45618;SDS011;31343;47.520;19.144;2023-06-10T05:28:13;2.10;;;1.30;;
45618;SDS011;31343;47.520;19.144;2023-06-10T05:30:38;2.53;;;1.25;;
45618;SDS011;31343;47.520;19.144;2023-06-10T05:33:05;1.45;;;1.02;;
45618;SDS011;31343;47.520;19.144;2023-06-10T05:35:31;1.73;;;1.23;;
45618;SDS011;31343;47.520;19.144;2023-06-10T05:37:56;2.25;;;1.45;;
45618;SDS011;31343;47.520;19.144;2023-06-10T05:40:22;1.65;;;0.80;;
45618;SDS011;31343;47.520;19.144;2023-06-10T05:42:48;1.50;;;0.90;;
45618;SDS011;31343;47.520;19.144;2023-06-10T05:45:14;1.67;;;1.13;;
45618;SDS011;31343;47.520;19.144;2023-06-10T05:47:40;1.75;;;1.10;;
45618;SDS011;31343;47.520;19.144;2023-06-10T05:50:06;1.60;;;1.00;;
45618;SDS011;31343;47.520;19.144;2023-06-10T05:52:34;1.67;;;1.00;;
45618;SDS011;31343;47.520;19.144;2023-06-10T05:55:04;2.08;;;1.05;;
45618;SDS011;31343;47.520;19.144;2023-06-10T05:57:30;1.30;;;0.90;;
45618;SDS011;31343;47.520;19.144;2023-06-10T05:59:57;2.00;;;1.30;;
45618;SDS011;31343;47.520;19.144;2023-06-10T06:02:22;1.92;;;1.00;;
45618;SDS011;31343;47.520;19.144;2023-06-10T06:04:48;1.30;;;0.93;;
45618;SDS011;31343;47.520;19.144;2023-06-10T06:07:14;1.77;;;1.20;;
45618;SDS011;31343;47.520;19.144;2023-06-10T06:09:40;1.05;;;0.90;;
45618;SDS011;31343;47.520;19.144;2023-06-10T06:12:06;2.10;;;1.23;;
45618;SDS011;31343;47.520;19.144;2023-06-10T06:14:36;1.55;;;1.05;;
45618;SDS011;31343;47.520;19.144;2023-06-10T06:17:04;1.90;;;1.10;;
45618;SDS011;31343;47.520;19.144;2023-06-10T06:19:30;1.60;;;1.02;;
45618;SDS011;31343;47.520;19.144;2023-06-10T06:21:56;1.60;;;1.20;;
45618;SDS011;31343;47.520;19.144;2023-06-10T06:24:22;1.70;;;0.82;;
45618;SDS011;31343;47.520;19.144;2023-06-10T06:26:48;3.70;;;1.95;;
45618;SDS011;31343;47.520;19.144;2023-06-10T06:29:13;2.03;;;1.23;;
45618;SDS011;31343;47.520;19.144;2023-06-10T06:31:39;2.53;;;1.25;;
45618;SDS011;31343;47.520;19.144;2023-06-10T06:34:05;1.75;;;1.30;;
45618;SDS011;31343;47.520;19.144;2023-06-10T06:36:31;1.80;;;1.30;;
45618;SDS011;31343;47.520;19.144;2023-06-10T06:38:56;2.38;;;1.60;;
45618;SDS011;31343;47.520;19.144;2023-06-10T06:41:24;1.67;;;1.20;;
45618;SDS011;31343;47.520;19.144;2023-06-10T06:43:53;1.10;;;0.85;;
45618;SDS011;31343;47.520;19.144;2023-06-10T06:46:19;1.70;;;1.33;;
45618;SDS011;31343;47.520;19.144;2023-06-10T06:48:46;2.10;;;1.33;;
45618;SDS011;31343;47.520;19.144;2023-06-10T06:51:12;1.95;;;1.40;;
45618;SDS011;31343;47.520;19.144;2023-06-10T06:53:38;2.55;;;1.30;;
45618;SDS011;31343;47.520;19.144;2023-06-10T06:56:10;2.20;;;1.38;;
45618;SDS011;31343;47.520;19.144;2023-06-10T06:58:38;2.47;;;1.60;;
45618;SDS011;31343;47.520;19.144;2023-06-10T07:01:03;2.22;;;1.23;;
45618;SDS011;31343;47.520;19.144;2023-06-10T07:03:30;1.42;;;1.05;;
45618;SDS011;31343;47.520;19.144;2023-06-10T07:05:56;2.08;;;1.48;;
45618;SDS011;31343;47.520;19.144;2023-06-10T07:08:26;2.47;;;1.27;;
45618;SDS011;31343;47.520;19.144;2023-06-10T07:10:52;2.13;;;1.42;;
45618;SDS011;31343;47.520;19.144;2023-06-10T07:13:19;1.40;;;1.15;;
45618;SDS011;31343;47.520;19.144;2023-06-10T07:15:45;2.20;;;1.25;;
45618;SDS011;31343;47.520;19.144;2023-06-10T07:18:11;3.10;;;1.65;;
45618;SDS011;31343;47.520;19.144;2023-06-10T07:20:37;1.63;;;1.30;;
45618;SDS011;31343;47.520;19.144;2023-06-10T07:23:03;2.00;;;1.10;;
45618;SDS011;31343;47.520;19.144;2023-06-10T07:25:28;2.30;;;1.70;;
45618;SDS011;31343;47.520;19.144;2023-06-10T07:27:54;2.70;;;1.42;;
45618;SDS011;31343;47.520;19.144;2023-06-10T07:30:20;1.73;;;1.05;;
45618;SDS011;31343;47.520;19.144;2023-06-10T07:32:46;2.10;;;1.33;;
45618;SDS011;31343;47.520;19.144;2023-06-10T07:35:11;2.35;;;1.45;;
45618;SDS011;31343;47.520;19.144;2023-06-10T07:37:37;1.40;;;1.00;;
45618;SDS011;31343;47.520;19.144;2023-06-10T07:40:03;2.70;;;1.70;;
45618;SDS011;31343;47.520;19.144;2023-06-10T07:42:31;1.48;;;1.10;;
45618;SDS011;31343;47.520;19.144;2023-06-10T07:44:58;1.92;;;1.23;;
45618;SDS011;31343;47.520;19.144;2023-06-10T07:47:24;2.55;;;1.40;;
45618;SDS011;31343;47.520;19.144;2023-06-10T07:49:50;1.60;;;1.20;;
45618;SDS011;31343;47.520;19.144;2023-06-10T07:52:16;2.75;;;1.35;;
45618;SDS011;31343;47.520;19.144;2023-06-10T07:54:43;2.40;;;1.30;;
45618;SDS011;31343;47.520;19.144;2023-06-10T07:57:10;2.35;;;1.50;;
45618;SDS011;31343;47.520;19.144;2023-06-10T07:59:35;2.38;;;1.63;;
45618;SDS011;31343;47.520;19.144;2023-06-10T08:02:03;2.25;;;1.60;;
45618;SDS011;31343;47.520;19.144;2023-06-10T08:04:29;2.88;;;1.92;;
45618;SDS011;31343;47.520;19.144;2023-06-10T08:06:57;2.65;;;1.75;;
45618;SDS011;31343;47.520;19.144;2023-06-10T08:09:23;2.17;;;1.35;;
45618;SDS011;31343;47.520;19.144;2023-06-10T08:11:49;2.33;;;1.40;;
45618;SDS011;31343;47.520;19.144;2023-06-10T08:14:15;2.20;;;1.58;;
45618;SDS011;31343;47.520;19.144;2023-06-10T08:16:42;3.15;;;2.08;;
45618;SDS011;31343;47.520;19.144;2023-06-10T08:19:08;3.15;;;1.90;;
45618;SDS011;31343;47.520;19.144;2023-06-10T08:21:34;2.22;;;1.70;;
45618;SDS011;31343;47.520;19.144;2023-06-10T08:24:02;2.80;;;1.80;;
45618;SDS011;31343;47.520;19.144;2023-06-10T08:26:28;2.95;;;2.30;;
45618;SDS011;31343;47.520;19.144;2023-06-10T08:28:54;2.42;;;1.65;;
45618;SDS011;31343;47.520;19.144;2023-06-10T08:31:20;3.95;;;2.72;;
45618;SDS011;31343;47.520;19.144;2023-06-10T08:33:46;3.55;;;2.25;;
45618;SDS011;31343;47.520;19.144;2023-06-10T08:36:12;3.28;;;2.03;;
45618;SDS011;31343;47.520;19.144;2023-06-10T08:38:38;4.15;;;2.28;;
45618;SDS011;31343;47.520;19.144;2023-06-10T08:41:04;3.00;;;2.00;;
45618;SDS011;31343;47.520;19.144;2023-06-10T08:43:39;3.92;;;2.67;;
45618;SDS011;31343;47.520;19.144;2023-06-10T08:46:12;3.22;;;2.25;;
45618;SDS011;31343;47.520;19.144;2023-06-10T08:48:43;3.47;;;2.45;;
45618;SDS011;31343;47.520;19.144;2023-06-10T08:51:11;4.32;;;2.17;;
45618;SDS011;31343;47.520;19.144;2023-06-10T08:53:37;2.70;;;1.77;;
45618;SDS011;31343;47.520;19.144;2023-06-10T08:56:12;4.10;;;2.42;;
45618;SDS011;31343;47.520;19.144;2023-06-10T08:58:39;3.25;;;2.20;;
45618;SDS011;31343;47.520;19.144;2023-06-10T09:01:07;3.42;;;2.40;;
45618;SDS011;31343;47.520;19.144;2023-06-10T09:03:35;2.85;;;1.73;;
45618;SDS011;31343;47.520;19.144;2023-06-10T09:06:04;3.10;;;2.63;;
45618;SDS011;31343;47.520;19.144;2023-06-10T09:08:31;4.20;;;2.78;;
45618;SDS011;31343;47.520;19.144;2023-06-10T09:10:58;3.10;;;2.10;;
45618;SDS011;31343;47.520;19.144;2023-06-10T09:13:24;3.17;;;2.38;;
45618;SDS011;31343;47.520;19.144;2023-06-10T09:15:50;3.25;;;2.13;;
45618;SDS011;31343;47.520;19.144;2023-06-10T09:18:16;4.05;;;3.03;;
45618;SDS011;31343;47.520;19.144;2023-06-10T09:20:42;3.90;;;2.72;;
45618;SDS011;31343;47.520;19.144;2023-06-10T09:23:10;3.22;;;2.25;;
45618;SDS011;31343;47.520;19.144;2023-06-10T09:25:38;3.80;;;2.25;;
45618;SDS011;31343;47.520;19.144;2023-06-10T09:28:05;4.00;;;2.95;;
45618;SDS011;31343;47.520;19.144;2023-06-10T09:30:38;3.78;;;2.50;;
45618;SDS011;31343;47.520;19.144;2023-06-10T09:33:09;7.90;;;3.25;;
45618;SDS011;31343;47.520;19.144;2023-06-10T09:35:37;4.93;;;3.20;;
45618;SDS011;31343;47.520;19.144;2023-06-10T09:38:14;4.88;;;3.90;;
45618;SDS011;31343;47.520;19.144;2023-06-10T09:40:54;4.70;;;3.30;;
45618;SDS011;31343;47.520;19.144;2023-06-10T09:43:20;7.70;;;4.25;;
45618;SDS011;31343;47.520;19.144;2023-06-10T09:45:49;5.88;;;3.28;;
45618;SDS011;31343;47.520;19.144;2023-06-10T09:48:18;5.85;;;4.20;;
45618;SDS011;31343;47.520;19.144;2023-06-10T09:50:44;6.90;;;3.92;;
45618;SDS011;31343;47.520;19.144;2023-06-10T09:53:11;5.68;;;3.85;;
45618;SDS011;31343;47.520;19.144;2023-06-10T09:55:41;6.97;;;4.65;;
45618;SDS011;31343;47.520;19.144;2023-06-10T09:58:07;5.93;;;4.30;;
45618;SDS011;31343;47.520;19.144;2023-06-10T10:00:33;5.72;;;4.07;;
45618;SDS011;31343;47.520;19.144;2023-06-10T10:02:59;5.78;;;4.35;;
45618;SDS011;31343;47.520;19.144;2023-06-10T10:05:26;6.30;;;4.57;;
45618;SDS011;31343;47.520;19.144;2023-06-10T10:07:52;6.13;;;3.85;;
45618;SDS011;31343;47.520;19.144;2023-06-10T10:10:20;6.00;;;4.80;;
45618;SDS011;31343;47.520;19.144;2023-06-10T10:12:48;5.57;;;3.95;;
45618;SDS011;31343;47.520;19.144;2023-06-10T10:15:18;5.50;;;4.20;;
45618;SDS011;31343;47.520;19.144;2023-06-10T10:20:33;6.38;;;4.25;;
45618;SDS011;31343;47.520;19.144;2023-06-10T10:23:05;5.72;;;4.15;;
45618;SDS011;31343;47.520;19.144;2023-06-10T10:25:38;6.78;;;4.50;;
45618;SDS011;31343;47.520;19.144;2023-06-10T10:30:42;4.82;;;4.07;;
45618;SDS011;31343;47.520;19.144;2023-06-10T10:33:22;5.20;;;3.83;;
45618;SDS011;31343;47.520;19.144;2023-06-10T10:35:57;5.72;;;3.95;;
45618;SDS011;31343;47.520;19.144;2023-06-10T10:38:23;4.55;;;3.25;;
45618;SDS011;31343;47.520;19.144;2023-06-10T10:40:50;5.88;;;3.90;;
45618;SDS011;31343;47.520;19.144;2023-06-10T10:43:17;5.00;;;3.05;;
45618;SDS011;31343;47.520;19.144;2023-06-10T10:45:45;5.30;;;3.88;;
45618;SDS011;31343;47.520;19.144;2023-06-10T10:48:11;4.47;;;3.08;;
45618;SDS011;31343;47.520;19.144;2023-06-10T10:50:39;4.65;;;3.15;;
45618;SDS011;31343;47.520;19.144;2023-06-10T10:53:05;4.95;;;3.15;;
45618;SDS011;31343;47.520;19.144;2023-06-10T10:55:32;4.05;;;2.50;;
45618;SDS011;31343;47.520;19.144;2023-06-10T11:00:35;3.72;;;2.92;;
45618;SDS011;31343;47.520;19.144;2023-06-10T11:08:13;3.47;;;2.97;;
45618;SDS011;31343;47.520;19.144;2023-06-10T11:10:40;3.95;;;2.83;;
45618;SDS011;31343;47.520;19.144;2023-06-10T11:13:19;5.13;;;4.13;;
45618;SDS011;31343;47.520;19.144;2023-06-10T11:15:49;4.95;;;3.88;;
45618;SDS011;31343;47.520;19.144;2023-06-10T11:18:22;4.60;;;3.55;;
45618;SDS011;31343;47.520;19.144;2023-06-10T11:23:57;4.43;;;3.42;;
45618;SDS011;31343;47.520;19.144;2023-06-10T11:31:25;3.83;;;2.80;;
45618;SDS011;31343;47.520;19.144;2023-06-10T11:33:59;3.75;;;2.90;;
45618;SDS011;31343;47.520;19.144;2023-06-10T11:36:28;3.45;;;2.20;;
45618;SDS011;31343;47.520;19.144;2023-06-10T11:38:58;2.75;;;2.25;;
45618;SDS011;31343;47.520;19.144;2023-06-10T11:41:26;2.88;;;2.00;;
45618;SDS011;31343;47.520;19.144;2023-06-10T11:43:53;2.17;;;1.70;;
45618;SDS011;31343;47.520;19.144;2023-06-10T11:46:21;2.03;;;1.50;;
45618;SDS011;31343;47.520;19.144;2023-06-10T11:48:48;2.55;;;1.58;;
45618;SDS011;31343;47.520;19.144;2023-06-10T11:51:18;1.73;;;1.40;;
45618;SDS011;31343;47.520;19.144;2023-06-10T11:53:45;2.22;;;1.40;;
45618;SDS011;31343;47.520;19.144;2023-06-10T11:56:13;1.52;;;1.10;;
45618;SDS011;31343;47.520;19.144;2023-06-10T11:58:44;2.65;;;1.58;;
45618;SDS011;31343;47.520;19.144;2023-06-10T12:01:10;1.90;;;0.90;;
45618;SDS011;31343;47.520;19.144;2023-06-10T12:03:37;1.42;;;0.95;;
45618;SDS011;31343;47.520;19.144;2023-06-10T12:06:04;1.38;;;0.90;;
45618;SDS011;31343;47.520;19.144;2023-06-10T12:08:31;1.20;;;0.88;;
45618;SDS011;31343;47.520;19.144;2023-06-10T12:10:58;1.88;;;1.10;;
45618;SDS011;31343;47.520;19.144;2023-06-10T12:13:27;1.17;;;0.90;;
45618;SDS011;31343;47.520;19.144;2023-06-10T12:15:53;1.55;;;1.00;;
45618;SDS011;31343;47.520;19.144;2023-06-10T12:18:20;0.98;;;0.70;;
45618;SDS011;31343;47.520;19.144;2023-06-10T12:20:49;1.60;;;1.20;;
45618;SDS011;31343;47.520;19.144;2023-06-10T12:23:17;1.15;;;0.80;;
45618;SDS011;31343;47.520;19.144;2023-06-10T12:25:53;1.00;;;0.60;;
45618;SDS011;31343;47.520;19.144;2023-06-10T12:28:21;1.92;;;1.13;;
45618;SDS011;31343;47.520;19.144;2023-06-10T12:30:48;1.05;;;0.80;;
45618;SDS011;31343;47.520;19.144;2023-06-10T12:33:18;0.88;;;0.68;;
45618;SDS011;31343;47.520;19.144;2023-06-10T12:35:49;1.05;;;0.70;;
45618;SDS011;31343;47.520;19.144;2023-06-10T12:38:22;1.42;;;1.10;;
45618;SDS011;31343;47.520;19.144;2023-06-10T12:41:04;0.85;;;0.65;;
45618;SDS011;31343;47.520;19.144;2023-06-10T12:43:30;1.77;;;1.17;;
45618;SDS011;31343;47.520;19.144;2023-06-10T12:46:07;0.98;;;0.70;;
45618;SDS011;31343;47.520;19.144;2023-06-10T12:48:34;0.80;;;0.65;;
45618;SDS011;31343;47.520;19.144;2023-06-10T12:51:00;1.80;;;0.75;;
45618;SDS011;31343;47.520;19.144;2023-06-10T12:53:26;1.20;;;0.85;;
45618;SDS011;31343;47.520;19.144;2023-06-10T12:55:52;1.30;;;1.00;;
45618;SDS011;31343;47.520;19.144;2023-06-10T12:58:21;1.02;;;0.75;;
45618;SDS011;31343;47.520;19.144;2023-06-10T13:00:48;1.73;;;1.02;;
45618;SDS011;31343;47.520;19.144;2023-06-10T13:03:17;1.42;;;0.90;;
45618;SDS011;31343;47.520;19.144;2023-06-10T13:05:43;2.25;;;1.00;;
45618;SDS011;31343;47.520;19.144;2023-06-10T13:08:09;1.63;;;0.98;;
45618;SDS011;31343;47.520;19.144;2023-06-10T13:10:38;1.08;;;0.82;;
45618;SDS011;31343;47.520;19.144;2023-06-10T13:13:05;1.52;;;0.95;;
45618;SDS011;31343;47.520;19.144;2023-06-10T13:15:33;1.45;;;0.90;;
45618;SDS011;31343;47.520;19.144;2023-06-10T13:18:04;1.35;;;0.98;;
45618;SDS011;31343;47.520;19.144;2023-06-10T13:20:30;3.00;;;1.08;;
45618;SDS011;31343;47.520;19.144;2023-06-10T13:22:57;0.88;;;0.73;;
45618;SDS011;31343;47.520;19.144;2023-06-10T13:25:23;2.03;;;1.42;;
45618;SDS011;31343;47.520;19.144;2023-06-10T13:27:49;2.00;;;1.10;;
45618;SDS011;31343;47.520;19.144;2023-06-10T13:30:16;1.52;;;1.13;;
45618;SDS011;31343;47.520;19.144;2023-06-10T13:32:41;1.98;;;1.38;;
45618;SDS011;31343;47.520;19.144;2023-06-10T13:35:08;0.95;;;0.80;;
45618;SDS011;31343;47.520;19.144;2023-06-10T13:37:34;2.00;;;1.30;;
45618;SDS011;31343;47.520;19.144;2023-06-10T13:40:00;1.67;;;1.30;;
45618;SDS011;31343;47.520;19.144;2023-06-10T13:42:28;2.13;;;1.88;;
45618;SDS011;31343;47.520;19.144;2023-06-10T13:44:54;1.45;;;1.08;;
45618;SDS011;31343;47.520;19.144;2023-06-10T13:47:21;1.92;;;1.45;;
45618;SDS011;31343;47.520;19.144;2023-06-10T13:49:47;1.45;;;1.15;;
45618;SDS011;31343;47.520;19.144;2023-06-10T13:52:13;1.23;;;0.80;;
45618;SDS011;31343;47.520;19.144;2023-06-10T13:54:39;2.45;;;1.00;;
45618;SDS011;31343;47.520;19.144;2023-06-10T13:57:05;1.70;;;0.90;;
45618;SDS011;31343;47.520;19.144;2023-06-10T13:59:31;1.35;;;0.90;;
45618;SDS011;31343;47.520;19.144;2023-06-10T14:01:56;3.17;;;1.67;;
45618;SDS011;31343;47.520;19.144;2023-06-10T14:04:23;1.42;;;1.13;;
45618;SDS011;31343;47.520;19.144;2023-06-10T14:06:48;1.70;;;1.42;;
45618;SDS011;31343;47.520;19.144;2023-06-10T14:09:14;1.52;;;1.00;;
45618;SDS011;31343;47.520;19.144;2023-06-10T14:11:43;1.23;;;1.00;;
45618;SDS011;31343;47.520;19.144;2023-06-10T14:14:09;1.75;;;1.23;;
45618;SDS011;31343;47.520;19.144;2023-06-10T14:16:35;1.05;;;0.70;;
45618;SDS011;31343;47.520;19.144;2023-06-10T14:19:01;2.17;;;1.33;;
45618;SDS011;31343;47.520;19.144;2023-06-10T14:21:26;1.98;;;1.20;;
45618;SDS011;31343;47.520;19.144;2023-06-10T14:23:52;2.10;;;1.20;;
45618;SDS011;31343;47.520;19.144;2023-06-10T14:26:18;1.70;;;1.20;;
45618;SDS011;31343;47.520;19.144;2023-06-10T14:28:48;1.80;;;0.93;;
45618;SDS011;31343;47.520;19.144;2023-06-10T14:31:14;1.40;;;0.90;;
45618;SDS011;31343;47.520;19.144;2023-06-10T14:33:41;2.38;;;1.60;;
45618;SDS011;31343;47.520;19.144;2023-06-10T14:36:09;1.75;;;1.30;;
45618;SDS011;31343;47.520;19.144;2023-06-10T14:38:35;1.80;;;1.27;;
45618;SDS011;31343;47.520;19.144;2023-06-10T14:41:01;1.63;;;1.00;;
45618;SDS011;31343;47.520;19.144;2023-06-10T14:43:27;1.55;;;1.05;;
45618;SDS011;31343;47.520;19.144;2023-06-10T14:45:53;1.92;;;1.52;;
45618;SDS011;31343;47.520;19.144;2023-06-10T14:48:21;1.83;;;1.10;;
45618;SDS011;31343;47.520;19.144;2023-06-10T14:50:47;1.40;;;1.02;;
45618;SDS011;31343;47.520;19.144;2023-06-10T14:53:16;1.98;;;1.10;;
45618;SDS011;31343;47.520;19.144;2023-06-10T14:55:45;1.25;;;0.90;;